Dryden, TX

7:02 PM CDT on July 22, 2017 (GMT -0500)
285 | | Change Station

Elev 2789 ft 30.15 °N, 102.41 °W | Updated 1 minute ago

Clear
Clear
89.8 °F
Feels Like 91 °F
N
9.9
Wind Variable Wind from South

Today
High -- | Low -- °F
--% Chance of Precip.
Yesterday
High -- | Low -- °F
Precip. -- in
Pressure 29.79 in
Visibility 10.0 miles
Clouds Few 600 ft
Few 9500 ft
Heat Index 91 °F
Dew Point 64 °F
Humidity 43%
Rainfall 0.00 in
Snow Depth Not available.
7:02 AM 8:48 PM
Waning Crescent, 0% visible
METAR KFST 222353Z AUTO 18021G29KT 10SM FEW006 FEW095 30/16 A2994 RMK AO2 PK WND 19033/2331 LTG DSNT S-NW SLP087 T03000156 10367 20294 55005 $
Pressure 29.79 in
Visibility 10.0 miles
Clouds Few 600 ft
Few 9500 ft
Heat Index 91 °F
Dew Point 64 °F
Humidity 43%
Rainfall 0.00 in
Snow Depth Not available.
7:02 AM 8:48 PM
Waning Crescent, 0% visible
METAR KFST 222353Z AUTO 18021G29KT 10SM FEW006 FEW095 30/16 A2994 RMK AO2 PK WND 19033/2331 LTG DSNT S-NW SLP087 T03000156 10367 20294 55005 $

Get Severe Weather Alerts

Thanks for signing up!

Be on the lookout for a verification email in your inbox.

You'll start receiving the daily forecast at 6 AM.

×

10-Day Weather Forecast

Almanac

Astronomy

Jul. 22, 2017 Rise Set
Actual Time
Civil Twilight
Nautical Twilight
Astronomical Twilight
Moon
Length of Visible Light
Length of Day
Tomorrow will be .
, % of the Moon is Illuminated

Today's Extremes

State Highs State Lows

Community

WunderPhotos

Category 6

Welcome to Category 6. This is the collective home for Weather Underground's featured writeups by Dr. Jeff Masters (right), Bob Henson (left), Chris Burt, and other regular contributors.

Nearby

Air Quality

  Air Quality AQ Index Pollutant
Not available.

Snow Depth

Station Depth Elevation

Earthquake Activity

City Distance Mag. Time & Date
Minimum magnitude displayed is 2.5.

Coastal Water Temperatures

Place Temperature

Stations

Nearby Weather Stations

Station Location Temp. Windchill Dew Point Humidity Wind Precip. Elev Updated Type
                   

Watches & Warnings

There are currently no watches in effect.